Impacts TAF Board INFO
FOR SITUATIONAL AWARENESS. NOT TO BE USED FOR FLIGHT PLANNING PURPOSES.
IDs:

KORD - Chicago/O'Hare Intl, IL, US

Issued at 1123 UTC 19 Jan 2018
Updated at 1300 UTC 19 Jan 2018
Potential Impact None Slight Moderate High
Time1251Z 19/13Z 19/14Z 19/15Z 19/16Z 19/17Z 19/18Z 19/19Z 19/20Z 19/21Z 19/22Z 19/23Z 20/00Z 20/01Z>>
Type OBS PRVL PRVL PRVL PRVL PRVL PRVL PRVL PRVL PRVL PRVL PRVL PRVL PRVL
VIS 10 >6 >6 >6 >6 >6 >6 >6 >6 >6 >6 >6 >6 >6
CIG -- -- -- -- -- -- -- -- -- -- 250 250 250 250
Cover SCT SCT SCT SCT SCT SCT SCT SCT SCT SCT BKN BKN BKN BKN
FltCat VFR VFR VFR VFR VFR VFR VFR VFR VFR VFR VFR VFR VFR VFR
WX -- -- -- -- -- -- -- -- -- -- -- -- -- --
WDir 220 220 220 210 210 210 210 210 210 210 210 210 210 210
WSpd 14 12 12 14 14 14 14 14 14 14 16 16 16 16
WGst -- -- -- 23 23 23 23 23 23 23 27 27 27 27

Raw TAF
KORD 191123Z 1912/2018 22012KT P6SM SCT250
  FM191500 21014G23KT P6SM SCT250
  FM192200 21016G27KT P6SM BKN250
  FM200700 23012KT P6SM BKN250


Raw METAR
KORD 191251Z 22014KT 10SM FEW180 SCT250 M02/M07 A2989 RMK AO2 SLP128 T10171072
KORD 191151Z 22014G22KT 10SM SCT250 M02/M07 A2989 RMK AO2 SLP128 4/002 T10171072 11011 21022 58015
KORD 191051Z 22013KT 10SM SCT250 M02/M07 A2990 RMK AO2 SLP134 T10171072
KORD 190951Z 22010KT 10SM FEW250 M02/M08 A2992 RMK AO2 SLP138 T10221078

METAR Board
Radar Display
Forecast Discussion

FOR SITUATIONAL AWARENESS. NOT TO BE USED FOR FLIGHT PLANNING PURPOSES.